createdAt,value
2019-03-30T00:00:17.886Z,52.20
2019-03-30T00:02:46.141Z,52.00
2019-03-30T00:05:14.392Z,52.00
2019-03-30T00:07:42.652Z,52.00
2019-03-30T00:10:11.242Z,52.30
2019-03-30T00:12:39.484Z,52.20
2019-03-30T00:15:08.843Z,52.50
2019-03-30T00:17:37.093Z,52.50
2019-03-30T00:20:10.063Z,52.80
2019-03-30T00:22:55.235Z,52.60
2019-03-30T00:25:16.159Z,52.90
2019-03-30T00:27:49.400Z,53.10
2019-03-30T00:30:22.737Z,53.00
2019-03-30T00:32:59.502Z,52.70
2019-03-30T00:35:32.311Z,53.00
2019-03-30T00:38:05.947Z,53.00
2019-03-30T00:40:38.804Z,52.90
2019-03-30T00:43:07.083Z,53.20
2019-03-30T00:45:36.955Z,53.20
2019-03-30T00:48:08.963Z,53.20
2019-03-30T00:50:39.403Z,53.30
2019-03-30T00:53:11.920Z,53.10
2019-03-30T00:55:42.878Z,53.10
2019-03-30T00:58:11.244Z,53.20
2019-03-30T01:00:39.490Z,53.10
2019-03-30T01:03:09.377Z,53.80
2019-03-30T01:05:37.719Z,53.20
2019-03-30T01:08:05.964Z,53.00
2019-03-30T01:10:34.203Z,52.70
2019-03-30T01:13:02.502Z,53.20
2019-03-30T01:15:30.758Z,53.20
2019-03-30T01:17:59.007Z,53.20
2019-03-30T01:20:27.849Z,53.40
2019-03-30T01:22:56.090Z,53.50
2019-03-30T01:25:24.331Z,53.40
2019-03-30T01:27:52.583Z,53.50
2019-03-30T01:30:23.307Z,53.60
2019-03-30T01:32:50.804Z,53.90
2019-03-30T01:35:19.196Z,53.80
2019-03-30T01:37:51.273Z,53.80
2019-03-30T01:40:19.510Z,53.90
2019-03-30T01:42:48.321Z,54.10
2019-03-30T01:45:16.652Z,54.20
2019-03-30T01:47:44.895Z,54.60
2019-03-30T01:50:17.489Z,54.30
2019-03-30T01:52:43.227Z,54.20
2019-03-30T01:55:11.527Z,54.00
2019-03-30T01:57:40.120Z,54.10
2019-03-30T02:00:09.800Z,53.90
2019-03-30T02:02:38.038Z,53.60
2019-03-30T02:05:06.682Z,53.70
2019-03-30T02:07:34.920Z,53.70
2019-03-30T02:10:03.559Z,54.10
2019-03-30T02:12:31.815Z,53.70
2019-03-30T02:15:00.091Z,53.90
2019-03-30T02:17:28.371Z,54.10
2019-03-30T02:19:57.610Z,54.00
2019-03-30T02:22:25.860Z,53.90
2019-03-30T02:24:54.116Z,54.00
2019-03-30T02:27:22.447Z,54.20
2019-03-30T02:29:50.687Z,54.00
2019-03-30T02:32:18.927Z,54.00
2019-03-30T02:34:47.185Z,54.20
2019-03-30T02:37:15.460Z,54.20
2019-03-30T02:39:44.299Z,54.20
2019-03-30T02:42:12.647Z,54.20
2019-03-30T02:44:40.898Z,53.90
2019-03-30T02:47:09.154Z,54.10
2019-03-30T02:49:37.413Z,53.90
2019-03-30T02:52:05.685Z,53.80
2019-03-30T02:54:33.996Z,53.60
2019-03-30T02:57:02.680Z,53.90
2019-03-30T02:59:30.951Z,54.10
2019-03-30T03:01:59.175Z,54.70
2019-03-30T03:04:27.512Z,54.70
2019-03-30T03:06:55.775Z,54.70
2019-03-30T03:09:24.003Z,54.70
2019-03-30T03:11:52.640Z,54.50
2019-03-30T03:14:20.886Z,55.10
2019-03-30T03:16:49.129Z,54.50
2019-03-30T03:19:17.653Z,54.10
2019-03-30T03:21:45.911Z,54.20
2019-03-30T03:24:14.155Z,54.10
2019-03-30T03:26:42.430Z,54.00
2019-03-30T03:29:10.681Z,53.80
2019-03-30T03:31:38.932Z,53.50
2019-03-30T03:34:07.202Z,53.70
2019-03-30T03:36:35.455Z,54.10
2019-03-30T03:39:05.133Z,54.10
2019-03-30T03:41:33.607Z,54.10
2019-03-30T03:44:01.856Z,54.00
2019-03-30T03:46:30.090Z,54.10
2019-03-30T03:48:58.833Z,54.80
2019-03-30T03:51:27.084Z,53.70
2019-03-30T03:53:55.318Z,54.10
2019-03-30T03:56:23.953Z,54.70
2019-03-30T03:58:52.186Z,54.70
2019-03-30T04:01:20.690Z,54.60
2019-03-30T04:03:48.956Z,54.30
2019-03-30T04:06:17.224Z,54.00
2019-03-30T04:08:45.529Z,54.10
2019-03-30T04:11:14.161Z,55.20
2019-03-30T04:13:42.412Z,55.00
2019-03-30T04:16:10.640Z,55.10
2019-03-30T04:18:38.899Z,54.80
2019-03-30T04:21:07.145Z,54.90
2019-03-30T04:23:35.385Z,54.70
2019-03-30T04:26:03.827Z,54.40
2019-03-30T04:28:32.075Z,54.30
2019-03-30T04:31:00.360Z,54.70
2019-03-30T04:33:28.834Z,55.10
2019-03-30T04:35:57.075Z,55.30
2019-03-30T04:38:25.318Z,56.40
2019-03-30T04:40:53.575Z,55.20
2019-03-30T04:43:24.365Z,55.10
2019-03-30T04:45:52.607Z,55.10
2019-03-30T04:48:20.879Z,55.20
2019-03-30T04:50:49.115Z,55.10
2019-03-30T04:53:17.355Z,55.10
2019-03-30T04:55:45.622Z,55.70
2019-03-30T04:58:13.871Z,55.60
2019-03-30T05:00:42.107Z,56.20
2019-03-30T05:03:10.410Z,55.70
2019-03-30T05:05:38.648Z,55.30
2019-03-30T05:08:06.890Z,55.90
2019-03-30T05:10:36.056Z,56.40
2019-03-30T05:13:04.304Z,56.40
2019-03-30T05:15:32.546Z,55.90
2019-03-30T05:18:00.901Z,55.20
2019-03-30T05:20:29.139Z,55.20
2019-03-30T05:22:57.467Z,55.50
2019-03-30T05:25:25.731Z,55.30
2019-03-30T05:27:53.974Z,55.30
2019-03-30T05:30:22.228Z,55.30
2019-03-30T05:33:04.613Z,55.50
2019-03-30T05:35:20.719Z,55.50
2019-03-30T05:37:48.971Z,55.70
2019-03-30T05:40:17.223Z,55.60
2019-03-30T05:42:45.463Z,55.70
2019-03-30T05:45:14.101Z,55.60
2019-03-30T05:47:42.390Z,55.30
2019-03-30T05:50:11.007Z,55.10
2019-03-30T05:52:39.279Z,55.10
2019-03-30T05:55:07.562Z,55.60
2019-03-30T05:57:35.802Z,55.70
2019-03-30T06:00:06.954Z,55.90
2019-03-30T06:02:35.559Z,55.40
2019-03-30T06:05:04.170Z,55.10
2019-03-30T06:07:32.413Z,55.20
2019-03-30T06:10:00.754Z,54.90
2019-03-30T06:12:29.007Z,54.70
2019-03-30T06:14:57.250Z,54.80
2019-03-30T06:17:25.524Z,54.60
2019-03-30T06:19:53.780Z,54.30
2019-03-30T06:22:22.033Z,54.40
2019-03-30T06:24:53.453Z,54.00
2019-03-30T06:27:26.098Z,54.00
2019-03-30T06:30:17.489Z,53.90
2019-03-30T06:32:45.720Z,54.00
2019-03-30T06:35:14.018Z,53.80
2019-03-30T06:37:42.692Z,53.70
2019-03-30T06:40:10.931Z,53.50
2019-03-30T06:42:39.524Z,53.40
2019-03-30T06:45:07.857Z,53.20
2019-03-30T06:47:36.250Z,53.30
2019-03-30T06:50:06.396Z,53.10
2019-03-30T06:52:34.852Z,53.60
2019-03-30T06:55:03.828Z,52.90
2019-03-30T06:57:32.115Z,52.60
2019-03-30T07:00:00.855Z,52.20
2019-03-30T07:02:29.095Z,52.00
2019-03-30T07:04:57.346Z,52.00
2019-03-30T07:07:25.684Z,51.60
2019-03-30T07:09:56.695Z,51.00
2019-03-30T07:12:25.278Z,51.00
2019-03-30T07:14:53.826Z,50.90
2019-03-30T07:17:22.114Z,50.80
2019-03-30T07:19:50.783Z,50.50
2019-03-30T07:22:19.548Z,50.50
2019-03-30T07:24:47.791Z,50.00
2019-03-30T07:27:16.053Z,49.90
2019-03-30T07:29:44.383Z,48.60
2019-03-30T07:32:12.628Z,48.30
2019-03-30T07:34:44.259Z,48.20
2019-03-30T07:37:12.560Z,47.90
2019-03-30T07:39:40.815Z,47.20
2019-03-30T07:42:09.069Z,47.20
2019-03-30T07:44:37.332Z,47.20
2019-03-30T07:47:05.592Z,46.60
2019-03-30T07:49:34.000Z,46.70
2019-03-30T07:52:06.836Z,46.50
2019-03-30T07:54:35.091Z,46.00
2019-03-30T07:57:07.092Z,46.10
2019-03-30T07:59:33.614Z,46.00
2019-03-30T08:02:01.855Z,45.60
2019-03-30T08:04:30.452Z,45.40
2019-03-30T08:06:58.852Z,45.40
2019-03-30T08:09:27.422Z,45.20
2019-03-30T08:11:55.678Z,45.10
2019-03-30T08:14:23.973Z,44.90
2019-03-30T08:16:52.225Z,44.70
2019-03-30T08:19:21.856Z,44.40
2019-03-30T08:21:50.673Z,44.30
2019-03-30T08:24:18.994Z,44.20
2019-03-30T08:26:47.256Z,44.10
2019-03-30T08:29:15.555Z,43.90
2019-03-30T08:31:43.814Z,43.60
2019-03-30T08:34:12.094Z,43.40
2019-03-30T08:36:40.447Z,43.40
2019-03-30T08:39:08.699Z,43.50
2019-03-30T08:41:36.951Z,42.90
2019-03-30T08:44:05.303Z,42.80
2019-03-30T08:46:34.207Z,42.60
2019-03-30T08:49:02.787Z,43.10
2019-03-30T08:51:31.699Z,42.20
2019-03-30T08:53:59.942Z,42.10
2019-03-30T08:56:28.291Z,41.90
2019-03-30T08:58:57.985Z,42.30
2019-03-30T09:01:27.027Z,41.80
2019-03-30T09:03:55.271Z,41.70
2019-03-30T09:06:23.639Z,41.70
2019-03-30T09:08:52.194Z,41.20
2019-03-30T09:11:20.512Z,40.90
2019-03-30T09:13:48.825Z,41.20
2019-03-30T09:16:17.062Z,40.30
2019-03-30T09:18:45.338Z,40.30
2019-03-30T09:21:13.972Z,39.90
2019-03-30T09:23:43.994Z,39.70
2019-03-30T09:26:12.242Z,38.90
2019-03-30T09:28:40.643Z,38.60
2019-03-30T09:31:08.879Z,38.60
2019-03-30T09:33:37.155Z,38.70
2019-03-30T09:36:08.615Z,37.50
2019-03-30T09:38:49.012Z,36.80
2019-03-30T09:41:19.795Z,37.60
2019-03-30T09:43:48.059Z,36.80
2019-03-30T09:46:16.309Z,35.90
2019-03-30T09:48:44.692Z,36.30
2019-03-30T09:51:12.927Z,34.80
2019-03-30T09:53:44.453Z,33.40
2019-03-30T09:56:12.975Z,33.50
2019-03-30T09:58:41.255Z,32.20
2019-03-30T10:01:09.506Z,31.20
2019-03-30T10:03:42.162Z,30.30
2019-03-30T10:06:10.390Z,29.90
2019-03-30T10:08:38.650Z,30.00
2019-03-30T10:11:08.189Z,30.00
2019-03-30T10:13:36.406Z,30.00
2019-03-30T10:16:04.707Z,28.90
2019-03-30T10:18:33.109Z,27.20
2019-03-30T10:21:01.397Z,27.10
2019-03-30T10:23:29.639Z,26.40
2019-03-30T10:25:59.042Z,27.10
2019-03-30T10:28:27.298Z,27.80
2019-03-30T10:30:55.596Z,27.70
2019-03-30T10:33:23.894Z,27.90
2019-03-30T10:35:52.147Z,27.30
2019-03-30T10:38:20.408Z,27.60
2019-03-30T10:40:48.675Z,27.80
2019-03-30T10:43:16.937Z,27.90
2019-03-30T10:45:45.180Z,27.10
2019-03-30T10:48:13.760Z,26.30
2019-03-30T10:50:43.663Z,24.20
2019-03-30T10:53:11.883Z,23.00
2019-03-30T10:55:40.543Z,22.20
2019-03-30T10:58:08.823Z,21.20
2019-03-30T11:00:38.717Z,21.10
2019-03-30T11:03:07.426Z,19.80
2019-03-30T11:05:35.690Z,18.50
2019-03-30T11:08:04.283Z,17.50
2019-03-30T11:10:32.598Z,17.80
2019-03-30T11:13:00.949Z,18.40
2019-03-30T11:15:29.204Z,18.30
2019-03-30T11:17:57.465Z,18.20
2019-03-30T11:20:25.735Z,18.80
2019-03-30T11:22:53.963Z,19.40
2019-03-30T11:25:24.603Z,18.90
2019-03-30T11:27:54.476Z,18.20
2019-03-30T11:30:22.744Z,19.00
2019-03-30T11:32:51.078Z,19.40
2019-03-30T11:35:19.370Z,19.90
2019-03-30T11:37:47.737Z,18.40
2019-03-30T11:40:16.025Z,16.50
2019-03-30T11:42:44.272Z,15.90
2019-03-30T11:45:12.828Z,15.90
2019-03-30T11:47:41.193Z,16.80
2019-03-30T11:50:09.423Z,17.20
2019-03-30T11:52:37.671Z,16.50
2019-03-30T11:55:20.530Z,14.90
2019-03-30T11:57:37.430Z,15.60
2019-03-30T12:00:06.512Z,17.70
2019-03-30T12:02:35.171Z,18.10
2019-03-30T12:05:04.437Z,18.50
2019-03-30T12:07:37.199Z,18.50
2019-03-30T12:10:06.015Z,18.60
2019-03-30T12:12:37.195Z,18.80
2019-03-30T12:15:08.074Z,18.70
2019-03-30T12:17:36.676Z,18.70
2019-03-30T12:20:12.260Z,19.70
2019-03-30T12:22:40.511Z,18.70
2019-03-30T12:25:08.766Z,18.80
2019-03-30T12:27:37.280Z,19.10
2019-03-30T12:30:09.949Z,18.60
2019-03-30T12:32:38.351Z,18.20
2019-03-30T12:35:07.070Z,17.30
2019-03-30T12:37:35.723Z,15.70
2019-03-30T12:40:06.960Z,15.20
2019-03-30T12:42:35.205Z,17.10
2019-03-30T12:45:05.004Z,16.50
2019-03-30T12:47:33.263Z,15.70
2019-03-30T12:50:06.005Z,15.80
2019-03-30T12:52:34.312Z,14.90
2019-03-30T12:55:02.670Z,15.20
2019-03-30T12:57:30.925Z,16.70
2019-03-30T13:00:02.478Z,16.70
2019-03-30T13:02:30.744Z,15.50
2019-03-30T13:04:58.996Z,14.20
2019-03-30T13:07:27.240Z,12.80
2019-03-30T13:09:56.616Z,12.80
2019-03-30T13:12:24.881Z,13.00
2019-03-30T13:14:57.748Z,12.60
2019-03-30T13:17:30.013Z,12.80
2019-03-30T13:19:58.872Z,12.20
2019-03-30T13:22:27.731Z,13.10
2019-03-30T13:24:56.016Z,12.80
2019-03-30T13:27:24.269Z,13.20
2019-03-30T13:29:58.791Z,12.30
2019-03-30T13:32:27.103Z,13.10
2019-03-30T13:34:55.943Z,12.30
2019-03-30T13:37:26.903Z,12.30
2019-03-30T13:39:56.102Z,12.30
2019-03-30T13:42:24.968Z,11.80
2019-03-30T13:44:53.824Z,11.20
2019-03-30T13:47:27.344Z,11.30
2019-03-30T13:49:56.448Z,13.20
2019-03-30T13:52:24.696Z,13.10
2019-03-30T13:54:54.803Z,14.50
2019-03-30T13:57:27.957Z,14.70
2019-03-30T13:59:56.206Z,14.20
2019-03-30T14:02:24.783Z,14.00
2019-03-30T14:04:56.149Z,15.10
2019-03-30T14:07:24.389Z,15.70
2019-03-30T14:09:52.732Z,15.50
2019-03-30T14:12:21.010Z,16.50
2019-03-30T14:14:58.085Z,17.70
2019-03-30T14:17:31.197Z,17.80
2019-03-30T14:19:59.507Z,17.30
2019-03-30T14:22:27.736Z,16.00
2019-03-30T14:25:00.420Z,15.60
2019-03-30T14:27:31.710Z,14.40
2019-03-30T14:30:00.439Z,13.40
2019-03-30T14:32:28.807Z,13.20
2019-03-30T14:34:57.071Z,12.90
2019-03-30T14:37:25.910Z,12.30
2019-03-30T14:39:54.246Z,11.80
2019-03-30T14:42:23.096Z,11.60
2019-03-30T14:44:51.323Z,12.00
2019-03-30T14:47:20.191Z,12.30
2019-03-30T14:49:48.450Z,13.00
2019-03-30T14:52:16.690Z,14.30
2019-03-30T14:54:52.713Z,13.90
2019-03-30T14:57:14.992Z,13.20
2019-03-30T14:59:43.312Z,12.80
2019-03-30T15:02:12.198Z,12.80
2019-03-30T15:04:41.358Z,12.20
2019-03-30T15:07:09.603Z,12.20
2019-03-30T15:09:37.955Z,12.70
2019-03-30T15:12:06.200Z,13.90
2019-03-30T15:14:34.446Z,15.10
2019-03-30T15:17:02.871Z,16.40
2019-03-30T15:19:31.169Z,16.60
2019-03-30T15:22:01.039Z,16.50
2019-03-30T15:24:32.453Z,15.90
2019-03-30T15:27:00.771Z,14.70
2019-03-30T15:29:29.143Z,13.30
2019-03-30T15:31:57.472Z,11.80
2019-03-30T15:34:26.293Z,11.50
2019-03-30T15:36:54.549Z,11.60
2019-03-30T15:39:27.722Z,11.60
2019-03-30T15:42:08.335Z,11.60
2019-03-30T15:44:36.640Z,11.60
2019-03-30T15:47:05.500Z,12.50
2019-03-30T15:49:36.871Z,13.60
2019-03-30T15:52:14.017Z,14.70
2019-03-30T15:54:43.418Z,16.50
2019-03-30T15:57:14.171Z,17.80
2019-03-30T15:59:41.669Z,18.70
2019-03-30T16:02:09.922Z,19.50
2019-03-30T16:04:38.179Z,20.50
2019-03-30T16:07:10.167Z,20.40
2019-03-30T16:09:38.482Z,20.10
2019-03-30T16:12:06.762Z,20.10
2019-03-30T16:14:36.647Z,20.40
2019-03-30T16:17:05.455Z,21.10
2019-03-30T16:19:33.712Z,21.10
2019-03-30T16:22:02.041Z,21.50
2019-03-30T16:24:38.458Z,21.80
2019-03-30T16:27:06.710Z,21.80
2019-03-30T16:29:36.559Z,22.20
2019-03-30T16:32:04.887Z,22.50
2019-03-30T16:34:33.427Z,22.40
2019-03-30T16:37:01.663Z,22.40
2019-03-30T16:39:30.415Z,22.80
2019-03-30T16:41:58.676Z,22.40
2019-03-30T16:44:26.928Z,22.80
2019-03-30T16:46:57.434Z,22.90
2019-03-30T16:49:25.288Z,22.90
2019-03-30T16:51:54.748Z,23.00
2019-03-30T16:54:24.827Z,23.10
2019-03-30T16:56:53.055Z,23.00
2019-03-30T16:59:21.312Z,23.10
2019-03-30T17:01:49.682Z,23.20
2019-03-30T17:04:17.993Z,23.50
2019-03-30T17:06:46.241Z,23.80
2019-03-30T17:09:15.330Z,24.00
2019-03-30T17:11:43.613Z,24.00
2019-03-30T17:14:11.941Z,24.30
2019-03-30T17:16:40.564Z,24.50
2019-03-30T17:19:08.830Z,24.70
2019-03-30T17:21:37.068Z,24.80
2019-03-30T17:24:05.431Z,24.90
2019-03-30T17:26:33.692Z,25.00
2019-03-30T17:29:01.938Z,25.20
2019-03-30T17:31:30.639Z,25.30
2019-03-30T17:33:58.877Z,25.50
2019-03-30T17:36:27.122Z,26.30
2019-03-30T17:38:56.900Z,26.90
2019-03-30T17:41:25.123Z,28.80
2019-03-30T17:43:53.401Z,30.00
2019-03-30T17:46:32.267Z,32.70
2019-03-30T17:49:00.565Z,34.50
2019-03-30T17:51:28.815Z,35.30
2019-03-30T17:53:57.096Z,36.40
2019-03-30T17:56:25.350Z,36.60
2019-03-30T17:58:53.840Z,36.50
2019-03-30T18:01:22.151Z,37.00
2019-03-30T18:03:52.363Z,36.90
2019-03-30T18:06:22.996Z,36.50
2019-03-30T18:08:51.318Z,36.40
2019-03-30T18:11:21.335Z,35.90
2019-03-30T18:13:49.626Z,35.80
2019-03-30T18:16:17.958Z,36.30
2019-03-30T18:18:46.234Z,35.70
2019-03-30T18:21:14.483Z,35.90
2019-03-30T18:23:43.391Z,36.10
2019-03-30T18:26:11.657Z,36.50
2019-03-30T18:28:39.906Z,36.60
2019-03-30T18:31:08.495Z,36.70
2019-03-30T18:33:36.738Z,36.70
2019-03-30T18:36:05.039Z,37.00
2019-03-30T18:38:36.463Z,36.70
2019-03-30T18:41:03.544Z,36.80
2019-03-30T18:43:31.787Z,37.00
2019-03-30T18:46:00.071Z,37.20
2019-03-30T18:48:28.323Z,37.30
2019-03-30T18:50:56.565Z,37.10
2019-03-30T18:53:25.155Z,35.80
2019-03-30T18:55:53.412Z,35.90
2019-03-30T18:58:21.659Z,34.80
2019-03-30T19:00:50.721Z,34.70
2019-03-30T19:03:20.279Z,34.80
2019-03-30T19:05:48.707Z,35.30
2019-03-30T19:08:17.004Z,35.90
2019-03-30T19:10:45.533Z,36.20
2019-03-30T19:13:13.779Z,36.30
2019-03-30T19:15:42.046Z,36.10
2019-03-30T19:18:10.342Z,36.10
2019-03-30T19:20:38.862Z,36.20
2019-03-30T19:23:07.449Z,36.30
2019-03-30T19:25:35.703Z,36.80
2019-03-30T19:28:04.321Z,37.10
2019-03-30T19:30:32.727Z,37.40
2019-03-30T19:33:01.046Z,38.10
2019-03-30T19:35:32.323Z,38.10
2019-03-30T19:38:00.935Z,38.50
2019-03-30T19:40:29.183Z,38.90
2019-03-30T19:43:07.790Z,39.10
2019-03-30T19:45:36.143Z,39.10
2019-03-30T19:48:06.038Z,39.10
2019-03-30T19:50:34.635Z,39.50
2019-03-30T19:53:03.232Z,39.60
2019-03-30T19:55:31.479Z,39.90
2019-03-30T19:57:59.740Z,40.00
2019-03-30T20:00:28.452Z,40.00
2019-03-30T20:02:56.771Z,40.10
2019-03-30T20:05:28.041Z,40.40
2019-03-30T20:08:11.211Z,40.00
2019-03-30T20:10:26.797Z,40.20
2019-03-30T20:12:55.051Z,40.20
2019-03-30T20:15:23.930Z,40.40
2019-03-30T20:17:52.281Z,41.30
2019-03-30T20:20:20.514Z,41.00
2019-03-30T20:22:49.821Z,40.90
2019-03-30T20:25:18.090Z,41.30
2019-03-30T20:27:46.347Z,41.00
2019-03-30T20:30:24.413Z,41.10
2019-03-30T20:32:52.343Z,41.40
2019-03-30T20:35:20.614Z,41.50
2019-03-30T20:37:48.892Z,41.70
2019-03-30T20:40:19.867Z,41.90
2019-03-30T20:42:51.274Z,42.80
2019-03-30T20:45:19.564Z,42.50
2019-03-30T20:47:47.830Z,42.90
2019-03-30T20:53:21.613Z,43.90
2019-03-30T20:55:53.486Z,44.30
2019-03-30T20:58:21.935Z,44.40
2019-03-30T21:00:50.491Z,44.60
2019-03-30T21:03:18.750Z,44.80
2019-03-30T21:05:47.484Z,44.90
2019-03-30T21:08:15.778Z,45.10
2019-03-30T21:10:44.074Z,45.10
2019-03-30T21:13:12.358Z,45.40
2019-03-30T21:15:58.594Z,45.60
2019-03-30T21:18:29.422Z,45.90
2019-03-30T21:21:03.197Z,45.80
2019-03-30T21:23:40.509Z,46.10
2019-03-30T21:26:11.472Z,46.40
2019-03-30T21:28:39.772Z,46.40
2019-03-30T21:31:08.117Z,46.90
2019-03-30T21:33:36.422Z,47.10
2019-03-30T21:36:05.283Z,47.90
2019-03-30T21:38:33.543Z,47.60
2019-03-30T21:41:01.787Z,48.00
2019-03-30T21:43:30.095Z,48.10
2019-03-30T21:46:00.721Z,48.30
2019-03-30T21:48:29.032Z,48.40
2019-03-30T21:51:02.405Z,48.50
2019-03-30T21:53:30.691Z,48.30
2019-03-30T21:55:58.941Z,49.40
2019-03-30T21:58:27.327Z,49.70
2019-03-30T22:00:55.632Z,50.00
2019-03-30T22:03:26.586Z,50.00
2019-03-30T22:05:57.505Z,50.10
2019-03-30T22:08:27.043Z,50.20
2019-03-30T22:11:31.356Z,50.50
2019-03-30T22:14:12.378Z,50.60
2019-03-30T22:16:40.957Z,50.70
2019-03-30T22:19:09.179Z,50.80
2019-03-30T22:21:37.735Z,51.50
2019-03-30T22:24:06.236Z,51.00
2019-03-30T22:26:34.509Z,51.20
2019-03-30T22:29:02.771Z,51.40
2019-03-30T22:31:36.085Z,51.30
2019-03-30T22:34:04.628Z,51.70
2019-03-30T22:36:36.502Z,51.60
2019-03-30T22:39:06.113Z,51.80
2019-03-30T22:41:34.398Z,52.00
2019-03-30T22:44:02.915Z,52.00
2019-03-30T22:46:31.184Z,52.30
2019-03-30T22:48:59.498Z,52.30
2019-03-30T22:51:27.745Z,52.50
2019-03-30T22:53:56.208Z,52.50
2019-03-30T22:56:24.740Z,52.50
2019-03-30T22:58:53.332Z,52.50
2019-03-30T23:01:23.033Z,52.80
2019-03-30T23:03:51.279Z,53.00
2019-03-30T23:06:19.522Z,53.40
2019-03-30T23:08:47.822Z,53.40
2019-03-30T23:11:16.086Z,53.80
2019-03-30T23:13:44.335Z,53.70
2019-03-30T23:16:12.697Z,53.70
2019-03-30T23:18:45.022Z,53.70
2019-03-30T23:21:11.511Z,53.80
2019-03-30T23:23:39.780Z,53.80
2019-03-30T23:26:08.046Z,54.00
2019-03-30T23:28:36.338Z,54.10
2019-03-30T23:31:04.707Z,53.90
2019-03-30T23:33:32.937Z,53.40
2019-03-30T23:36:01.183Z,52.80
2019-03-30T23:38:29.550Z,52.50
2019-03-30T23:40:57.798Z,52.50
2019-03-30T23:43:26.408Z,52.50
2019-03-30T23:45:55.008Z,53.10
2019-03-30T23:48:23.255Z,52.40
2019-03-30T23:50:53.143Z,52.20
2019-03-30T23:53:21.484Z,52.00
2019-03-30T23:55:49.723Z,52.10
2019-03-30T23:58:18.040Z,51.90
